sensor_id;sensor_type;location;lat;lon;timestamp;temperature;humidity
5802;DHT22;2927;49.366;8.530;2023-08-06T00:02:04;15.80;99.90
5802;DHT22;2927;49.366;8.530;2023-08-06T00:04:30;15.80;99.90
5802;DHT22;2927;49.366;8.530;2023-08-06T00:06:55;15.80;99.90
5802;DHT22;2927;49.366;8.530;2023-08-06T00:09:21;15.80;99.90
5802;DHT22;2927;49.366;8.530;2023-08-06T00:11:47;15.80;99.90
5802;DHT22;2927;49.366;8.530;2023-08-06T00:14:13;15.80;99.90
5802;DHT22;2927;49.366;8.530;2023-08-06T00:16:43;15.80;99.90
5802;DHT22;2927;49.366;8.530;2023-08-06T00:19:08;15.80;99.90
5802;DHT22;2927;49.366;8.530;2023-08-06T00:21:34;15.80;99.90
5802;DHT22;2927;49.366;8.530;2023-08-06T00:23:59;15.80;99.90
5802;DHT22;2927;49.366;8.530;2023-08-06T00:26:25;15.80;99.90
5802;DHT22;2927;49.366;8.530;2023-08-06T00:28:50;15.90;99.90
5802;DHT22;2927;49.366;8.530;2023-08-06T00:31:17;15.80;99.90
5802;DHT22;2927;49.366;8.530;2023-08-06T00:33:42;15.90;99.90
5802;DHT22;2927;49.366;8.530;2023-08-06T00:36:08;16.00;99.90
5802;DHT22;2927;49.366;8.530;2023-08-06T00:38:33;16.00;99.90
5802;DHT22;2927;49.366;8.530;2023-08-06T00:40:59;16.00;99.90
5802;DHT22;2927;49.366;8.530;2023-08-06T00:43:24;16.00;99.90
5802;DHT22;2927;49.366;8.530;2023-08-06T00:45:50;16.00;99.90
5802;DHT22;2927;49.366;8.530;2023-08-06T00:48:15;15.90;99.90
5802;DHT22;2927;49.366;8.530;2023-08-06T00:50:41;15.90;99.90
5802;DHT22;2927;49.366;8.530;2023-08-06T00:53:07;15.90;99.90
5802;DHT22;2927;49.366;8.530;2023-08-06T00:55:33;15.80;99.90
5802;DHT22;2927;49.366;8.530;2023-08-06T00:57:59;15.70;99.90
5802;DHT22;2927;49.366;8.530;2023-08-06T01:00:26;15.70;99.90
5802;DHT22;2927;49.366;8.530;2023-08-06T01:02:52;15.60;99.90
5802;DHT22;2927;49.366;8.530;2023-08-06T01:05:18;15.60;99.90
5802;DHT22;2927;49.366;8.530;2023-08-06T01:10:50;15.60;99.90
5802;DHT22;2927;49.366;8.530;2023-08-06T01:15:58;15.70;99.90
5802;DHT22;2927;49.366;8.530;2023-08-06T01:18:25;15.80;99.90
5802;DHT22;2927;49.366;8.530;2023-08-06T01:20:51;15.80;99.90
5802;DHT22;2927;49.366;8.530;2023-08-06T01:23:17;15.90;99.90
5802;DHT22;2927;49.366;8.530;2023-08-06T01:31:41;16.00;99.90
5802;DHT22;2927;49.366;8.530;2023-08-06T01:34:11;16.00;99.90
5802;DHT22;2927;49.366;8.530;2023-08-06T01:36:38;15.80;99.90
5802;DHT22;2927;49.366;8.530;2023-08-06T01:39:05;15.70;99.90
5802;DHT22;2927;49.366;8.530;2023-08-06T01:41:30;15.60;99.90
5802;DHT22;2927;49.366;8.530;2023-08-06T01:43:56;15.50;99.90
5802;DHT22;2927;49.366;8.530;2023-08-06T01:46:21;15.40;99.90
5802;DHT22;2927;49.366;8.530;2023-08-06T01:48:47;15.40;99.90
5802;DHT22;2927;49.366;8.530;2023-08-06T01:51:12;15.50;99.90
5802;DHT22;2927;49.366;8.530;2023-08-06T01:53:38;15.60;99.90
5802;DHT22;2927;49.366;8.530;2023-08-06T01:56:03;15.60;99.90
5802;DHT22;2927;49.366;8.530;2023-08-06T01:58:29;15.70;99.90
5802;DHT22;2927;49.366;8.530;2023-08-06T02:00:54;15.60;99.90
5802;DHT22;2927;49.366;8.530;2023-08-06T02:03:20;15.70;99.90
5802;DHT22;2927;49.366;8.530;2023-08-06T02:05:45;15.70;99.90
5802;DHT22;2927;49.366;8.530;2023-08-06T02:08:11;15.70;99.90
5802;DHT22;2927;49.366;8.530;2023-08-06T02:10:36;15.60;99.90
5802;DHT22;2927;49.366;8.530;2023-08-06T02:13:02;15.70;99.90
5802;DHT22;2927;49.366;8.530;2023-08-06T02:15:27;15.60;99.90
5802;DHT22;2927;49.366;8.530;2023-08-06T02:17:53;15.60;99.90
5802;DHT22;2927;49.366;8.530;2023-08-06T02:20:18;15.70;99.90
5802;DHT22;2927;49.366;8.530;2023-08-06T02:22:44;15.70;99.90
5802;DHT22;2927;49.366;8.530;2023-08-06T02:25:09;15.70;99.90
5802;DHT22;2927;49.366;8.530;2023-08-06T02:27:35;15.70;99.90
5802;DHT22;2927;49.366;8.530;2023-08-06T02:30:01;15.70;99.90
5802;DHT22;2927;49.366;8.530;2023-08-06T02:32:27;15.80;99.90
5802;DHT22;2927;49.366;8.530;2023-08-06T02:34:55;15.80;99.90
5802;DHT22;2927;49.366;8.530;2023-08-06T02:37:20;15.80;99.90
5802;DHT22;2927;49.366;8.530;2023-08-06T02:39:46;15.80;99.90
5802;DHT22;2927;49.366;8.530;2023-08-06T02:42:11;15.80;99.90
5802;DHT22;2927;49.366;8.530;2023-08-06T02:44:37;15.80;99.90
5802;DHT22;2927;49.366;8.530;2023-08-06T02:47:02;15.80;99.90
5802;DHT22;2927;49.366;8.530;2023-08-06T02:49:28;15.80;99.90
5802;DHT22;2927;49.366;8.530;2023-08-06T02:51:53;15.70;99.90
5802;DHT22;2927;49.366;8.530;2023-08-06T02:54:19;15.70;99.90
5802;DHT22;2927;49.366;8.530;2023-08-06T02:56:45;15.70;99.90
5802;DHT22;2927;49.366;8.530;2023-08-06T02:59:12;15.70;99.90
5802;DHT22;2927;49.366;8.530;2023-08-06T03:01:38;15.60;99.90
5802;DHT22;2927;49.366;8.530;2023-08-06T03:04:04;15.40;99.90
5802;DHT22;2927;49.366;8.530;2023-08-06T03:06:29;15.40;99.90
5802;DHT22;2927;49.366;8.530;2023-08-06T03:08:55;15.30;99.90
5802;DHT22;2927;49.366;8.530;2023-08-06T03:11:20;15.30;99.90
5802;DHT22;2927;49.366;8.530;2023-08-06T03:13:47;15.20;99.90
5802;DHT22;2927;49.366;8.530;2023-08-06T03:16:13;15.20;99.90
5802;DHT22;2927;49.366;8.530;2023-08-06T03:18:38;15.10;99.90
5802;DHT22;2927;49.366;8.530;2023-08-06T03:21:04;15.10;99.90
5802;DHT22;2927;49.366;8.530;2023-08-06T03:23:29;15.10;99.90
5802;DHT22;2927;49.366;8.530;2023-08-06T03:25:55;15.10;99.90
5802;DHT22;2927;49.366;8.530;2023-08-06T03:28:20;15.10;99.90
5802;DHT22;2927;49.366;8.530;2023-08-06T03:30:47;15.20;99.90
5802;DHT22;2927;49.366;8.530;2023-08-06T03:33:13;15.20;99.90
5802;DHT22;2927;49.366;8.530;2023-08-06T03:35:39;15.20;99.90
5802;DHT22;2927;49.366;8.530;2023-08-06T03:38:04;15.20;99.90
5802;DHT22;2927;49.366;8.530;2023-08-06T03:40:30;15.30;99.90
5802;DHT22;2927;49.366;8.530;2023-08-06T03:42:55;15.30;99.90
5802;DHT22;2927;49.366;8.530;2023-08-06T03:45:21;15.30;99.90
5802;DHT22;2927;49.366;8.530;2023-08-06T03:47:46;15.30;99.90
5802;DHT22;2927;49.366;8.530;2023-08-06T03:50:12;15.40;99.90
5802;DHT22;2927;49.366;8.530;2023-08-06T03:52:37;15.40;99.90
5802;DHT22;2927;49.366;8.530;2023-08-06T03:55:03;15.40;99.90
5802;DHT22;2927;49.366;8.530;2023-08-06T03:57:28;15.40;99.90
5802;DHT22;2927;49.366;8.530;2023-08-06T03:59:54;15.30;99.90
5802;DHT22;2927;49.366;8.530;2023-08-06T04:02:19;15.30;99.90
5802;DHT22;2927;49.366;8.530;2023-08-06T04:04:45;15.30;99.90
5802;DHT22;2927;49.366;8.530;2023-08-06T04:07:11;15.30;99.90
5802;DHT22;2927;49.366;8.530;2023-08-06T04:09:54;15.30;99.90
5802;DHT22;2927;49.366;8.530;2023-08-06T04:12:19;15.30;99.90
5802;DHT22;2927;49.366;8.530;2023-08-06T04:14:45;15.30;99.90
5802;DHT22;2927;49.366;8.530;2023-08-06T04:17:11;15.20;99.90
5802;DHT22;2927;49.366;8.530;2023-08-06T04:19:36;15.20;99.90
5802;DHT22;2927;49.366;8.530;2023-08-06T04:22:02;15.20;99.90
5802;DHT22;2927;49.366;8.530;2023-08-06T04:24:27;15.20;99.90
5802;DHT22;2927;49.366;8.530;2023-08-06T04:26:53;15.20;99.90
5802;DHT22;2927;49.366;8.530;2023-08-06T04:29:18;15.10;99.90
5802;DHT22;2927;49.366;8.530;2023-08-06T04:31:44;15.10;99.90
5802;DHT22;2927;49.366;8.530;2023-08-06T04:34:09;15.10;99.90
5802;DHT22;2927;49.366;8.530;2023-08-06T04:36:35;15.10;99.90
5802;DHT22;2927;49.366;8.530;2023-08-06T04:39:00;15.10;99.90
5802;DHT22;2927;49.366;8.530;2023-08-06T04:41:26;15.10;99.90
5802;DHT22;2927;49.366;8.530;2023-08-06T04:43:51;15.00;99.90
5802;DHT22;2927;49.366;8.530;2023-08-06T04:46:17;15.00;99.90
5802;DHT22;2927;49.366;8.530;2023-08-06T04:48:42;15.00;99.90
5802;DHT22;2927;49.366;8.530;2023-08-06T04:51:08;15.00;99.90
5802;DHT22;2927;49.366;8.530;2023-08-06T04:53:33;15.00;99.90
5802;DHT22;2927;49.366;8.530;2023-08-06T04:55:59;15.00;99.90
5802;DHT22;2927;49.366;8.530;2023-08-06T04:58:24;14.90;99.90
5802;DHT22;2927;49.366;8.530;2023-08-06T05:00:50;14.90;99.90
5802;DHT22;2927;49.366;8.530;2023-08-06T05:03:15;14.90;99.90
5802;DHT22;2927;49.366;8.530;2023-08-06T05:05:41;14.90;99.90
5802;DHT22;2927;49.366;8.530;2023-08-06T05:08:07;14.80;99.90
5802;DHT22;2927;49.366;8.530;2023-08-06T05:10:32;14.70;99.90
5802;DHT22;2927;49.366;8.530;2023-08-06T05:12:58;14.60;99.90
5802;DHT22;2927;49.366;8.530;2023-08-06T05:15:23;14.60;99.90
5802;DHT22;2927;49.366;8.530;2023-08-06T05:17:51;14.50;99.90
5802;DHT22;2927;49.366;8.530;2023-08-06T05:20:16;14.50;99.90
5802;DHT22;2927;49.366;8.530;2023-08-06T05:22:43;14.40;99.90
5802;DHT22;2927;49.366;8.530;2023-08-06T05:25:08;14.40;99.90
5802;DHT22;2927;49.366;8.530;2023-08-06T05:27:34;14.40;99.90
5802;DHT22;2927;49.366;8.530;2023-08-06T05:29:59;14.30;99.90
5802;DHT22;2927;49.366;8.530;2023-08-06T05:32:25;14.30;99.90
5802;DHT22;2927;49.366;8.530;2023-08-06T05:34:51;14.30;99.90
5802;DHT22;2927;49.366;8.530;2023-08-06T05:37:16;14.30;99.90
5802;DHT22;2927;49.366;8.530;2023-08-06T05:39:42;14.30;99.90
5802;DHT22;2927;49.366;8.530;2023-08-06T05:42:07;14.30;99.90
5802;DHT22;2927;49.366;8.530;2023-08-06T05:44:33;14.30;99.90
5802;DHT22;2927;49.366;8.530;2023-08-06T05:46:58;14.30;99.90
5802;DHT22;2927;49.366;8.530;2023-08-06T05:49:24;14.30;99.90
5802;DHT22;2927;49.366;8.530;2023-08-06T05:51:50;14.30;99.90
5802;DHT22;2927;49.366;8.530;2023-08-06T05:54:18;14.30;99.90
5802;DHT22;2927;49.366;8.530;2023-08-06T05:56:44;14.40;99.90
5802;DHT22;2927;49.366;8.530;2023-08-06T05:59:09;14.30;99.90
5802;DHT22;2927;49.366;8.530;2023-08-06T06:01:35;14.30;99.90
5802;DHT22;2927;49.366;8.530;2023-08-06T06:04:00;14.30;99.90
5802;DHT22;2927;49.366;8.530;2023-08-06T06:06:26;14.30;99.90
5802;DHT22;2927;49.366;8.530;2023-08-06T06:08:51;14.30;99.90
5802;DHT22;2927;49.366;8.530;2023-08-06T06:11:17;14.40;99.90
5802;DHT22;2927;49.366;8.530;2023-08-06T06:13:44;14.40;99.90
5802;DHT22;2927;49.366;8.530;2023-08-06T06:16:10;14.40;99.90
5802;DHT22;2927;49.366;8.530;2023-08-06T06:18:35;14.40;99.90
5802;DHT22;2927;49.366;8.530;2023-08-06T06:21:01;14.40;99.90
5802;DHT22;2927;49.366;8.530;2023-08-06T06:23:27;14.40;99.90
5802;DHT22;2927;49.366;8.530;2023-08-06T06:25:52;14.50;99.90
5802;DHT22;2927;49.366;8.530;2023-08-06T06:28:18;14.50;99.90
5802;DHT22;2927;49.366;8.530;2023-08-06T06:30:44;14.50;99.90
5802;DHT22;2927;49.366;8.530;2023-08-06T06:33:09;14.60;99.90
5802;DHT22;2927;49.366;8.530;2023-08-06T06:35:35;14.60;99.90
5802;DHT22;2927;49.366;8.530;2023-08-06T06:38:01;14.60;99.90
5802;DHT22;2927;49.366;8.530;2023-08-06T06:40:26;14.70;99.90
5802;DHT22;2927;49.366;8.530;2023-08-06T06:42:52;14.70;99.90
5802;DHT22;2927;49.366;8.530;2023-08-06T06:45:17;14.80;99.90
5802;DHT22;2927;49.366;8.530;2023-08-06T06:47:43;15.00;99.90
5802;DHT22;2927;49.366;8.530;2023-08-06T06:50:09;15.00;99.90
5802;DHT22;2927;49.366;8.530;2023-08-06T06:52:34;15.10;99.90
5802;DHT22;2927;49.366;8.530;2023-08-06T06:55:00;15.10;99.90
5802;DHT22;2927;49.366;8.530;2023-08-06T06:57:26;15.10;99.90
5802;DHT22;2927;49.366;8.530;2023-08-06T06:59:51;15.10;99.90
5802;DHT22;2927;49.366;8.530;2023-08-06T07:02:17;15.10;99.90
5802;DHT22;2927;49.366;8.530;2023-08-06T07:04:43;15.10;99.90
5802;DHT22;2927;49.366;8.530;2023-08-06T07:07:08;15.10;99.90
5802;DHT22;2927;49.366;8.530;2023-08-06T07:09:34;15.20;99.90
5802;DHT22;2927;49.366;8.530;2023-08-06T07:11:59;15.40;99.90
5802;DHT22;2927;49.366;8.530;2023-08-06T07:14:26;15.50;99.90
5802;DHT22;2927;49.366;8.530;2023-08-06T07:16:51;15.60;99.90
5802;DHT22;2927;49.366;8.530;2023-08-06T07:19:17;15.70;99.90
5802;DHT22;2927;49.366;8.530;2023-08-06T07:21:42;15.80;99.90
5802;DHT22;2927;49.366;8.530;2023-08-06T07:24:08;15.80;99.90
5802;DHT22;2927;49.366;8.530;2023-08-06T07:26:33;15.90;99.90
5802;DHT22;2927;49.366;8.530;2023-08-06T07:28:59;15.90;99.90
5802;DHT22;2927;49.366;8.530;2023-08-06T07:31:24;15.90;99.90
5802;DHT22;2927;49.366;8.530;2023-08-06T07:33:50;15.90;99.90
5802;DHT22;2927;49.366;8.530;2023-08-06T07:36:16;15.90;99.90
5802;DHT22;2927;49.366;8.530;2023-08-06T07:38:42;15.70;99.90
5802;DHT22;2927;49.366;8.530;2023-08-06T07:41:08;15.60;99.90
5802;DHT22;2927;49.366;8.530;2023-08-06T07:43:34;15.60;99.90
5802;DHT22;2927;49.366;8.530;2023-08-06T07:46:01;15.50;99.90
5802;DHT22;2927;49.366;8.530;2023-08-06T07:48:28;15.50;99.90
5802;DHT22;2927;49.366;8.530;2023-08-06T07:50:54;15.50;99.90
5802;DHT22;2927;49.366;8.530;2023-08-06T07:53:24;15.60;99.90
5802;DHT22;2927;49.366;8.530;2023-08-06T07:55:53;15.80;99.90
5802;DHT22;2927;49.366;8.530;2023-08-06T07:58:19;15.90;99.90
5802;DHT22;2927;49.366;8.530;2023-08-06T08:00:45;16.10;99.90
5802;DHT22;2927;49.366;8.530;2023-08-06T08:03:15;16.40;99.90
5802;DHT22;2927;49.366;8.530;2023-08-06T08:05:44;16.50;99.90
5802;DHT22;2927;49.366;8.530;2023-08-06T08:08:10;16.70;99.90
5802;DHT22;2927;49.366;8.530;2023-08-06T08:10:36;16.80;99.90
5802;DHT22;2927;49.366;8.530;2023-08-06T08:13:03;16.90;99.90
5802;DHT22;2927;49.366;8.530;2023-08-06T08:15:30;17.00;99.90
5802;DHT22;2927;49.366;8.530;2023-08-06T08:17:56;16.90;99.90
5802;DHT22;2927;49.366;8.530;2023-08-06T08:20:22;16.90;99.90
5802;DHT22;2927;49.366;8.530;2023-08-06T08:22:47;17.10;99.90
5802;DHT22;2927;49.366;8.530;2023-08-06T08:25:13;17.00;99.90
5802;DHT22;2927;49.366;8.530;2023-08-06T08:27:39;16.80;99.90
5802;DHT22;2927;49.366;8.530;2023-08-06T08:30:05;16.50;99.90
5802;DHT22;2927;49.366;8.530;2023-08-06T08:32:31;16.30;99.90
5802;DHT22;2927;49.366;8.530;2023-08-06T08:34:56;16.30;99.90
5802;DHT22;2927;49.366;8.530;2023-08-06T08:37:23;16.20;99.90
5802;DHT22;2927;49.366;8.530;2023-08-06T08:39:48;16.20;99.90
5802;DHT22;2927;49.366;8.530;2023-08-06T08:42:15;16.60;99.90
5802;DHT22;2927;49.366;8.530;2023-08-06T08:44:42;16.90;99.90
5802;DHT22;2927;49.366;8.530;2023-08-06T08:47:09;17.30;99.90
5802;DHT22;2927;49.366;8.530;2023-08-06T08:49:36;18.20;99.90
5802;DHT22;2927;49.366;8.530;2023-08-06T08:52:03;19.10;99.90
5802;DHT22;2927;49.366;8.530;2023-08-06T08:54:32;19.70;99.90
5802;DHT22;2927;49.366;8.530;2023-08-06T08:56:58;19.90;1.00
5802;DHT22;2927;49.366;8.530;2023-08-06T08:59:24;20.40;1.00
5802;DHT22;2927;49.366;8.530;2023-08-06T09:01:50;19.90;1.00
5802;DHT22;2927;49.366;8.530;2023-08-06T09:04:20;19.20;92.60
5802;DHT22;2927;49.366;8.530;2023-08-06T09:06:50;18.20;99.90
5802;DHT22;2927;49.366;8.530;2023-08-06T09:09:22;17.70;99.90
5802;DHT22;2927;49.366;8.530;2023-08-06T09:11:50;17.30;99.90
5802;DHT22;2927;49.366;8.530;2023-08-06T09:14:17;17.10;99.90
5802;DHT22;2927;49.366;8.530;2023-08-06T09:16:43;17.10;99.90
5802;DHT22;2927;49.366;8.530;2023-08-06T09:19:13;17.30;99.90
5802;DHT22;2927;49.366;8.530;2023-08-06T09:21:41;17.70;99.90
5802;DHT22;2927;49.366;8.530;2023-08-06T09:24:12;18.30;99.90
5802;DHT22;2927;49.366;8.530;2023-08-06T09:26:41;18.50;99.90
5802;DHT22;2927;49.366;8.530;2023-08-06T09:29:07;18.50;99.90
5802;DHT22;2927;49.366;8.530;2023-08-06T09:31:49;18.30;99.90
5802;DHT22;2927;49.366;8.530;2023-08-06T09:34:21;18.30;99.90
5802;DHT22;2927;49.366;8.530;2023-08-06T09:36:52;18.20;99.90
5802;DHT22;2927;49.366;8.530;2023-08-06T09:39:28;18.10;99.90
5802;DHT22;2927;49.366;8.530;2023-08-06T09:42:01;17.80;99.90
5802;DHT22;2927;49.366;8.530;2023-08-06T09:44:30;17.70;99.90
5802;DHT22;2927;49.366;8.530;2023-08-06T09:46:58;17.50;99.90
5802;DHT22;2927;49.366;8.530;2023-08-06T09:49:28;17.40;99.90
5802;DHT22;2927;49.366;8.530;2023-08-06T09:52:14;17.20;99.90
5802;DHT22;2927;49.366;8.530;2023-08-06T09:54:43;17.00;99.90
5802;DHT22;2927;49.366;8.530;2023-08-06T09:57:08;16.90;99.90
5802;DHT22;2927;49.366;8.530;2023-08-06T09:59:34;16.70;99.90
5802;DHT22;2927;49.366;8.530;2023-08-06T10:02:01;16.80;99.90
5802;DHT22;2927;49.366;8.530;2023-08-06T10:04:29;16.80;99.90
5802;DHT22;2927;49.366;8.530;2023-08-06T10:06:54;16.90;99.90
5802;DHT22;2927;49.366;8.530;2023-08-06T10:09:20;16.90;99.90
5802;DHT22;2927;49.366;8.530;2023-08-06T10:11:51;16.90;99.90
5802;DHT22;2927;49.366;8.530;2023-08-06T10:14:32;17.00;99.90
5802;DHT22;2927;49.366;8.530;2023-08-06T10:16:59;17.10;99.90
5802;DHT22;2927;49.366;8.530;2023-08-06T10:19:26;17.10;99.90
5802;DHT22;2927;49.366;8.530;2023-08-06T10:22:09;17.20;99.90
5802;DHT22;2927;49.366;8.530;2023-08-06T10:27:11;17.20;99.90
5802;DHT22;2927;49.366;8.530;2023-08-06T10:29:37;17.20;99.90
5802;DHT22;2927;49.366;8.530;2023-08-06T10:32:03;17.30;99.90
5802;DHT22;2927;49.366;8.530;2023-08-06T10:34:55;17.20;99.90
5802;DHT22;2927;49.366;8.530;2023-08-06T10:37:22;17.00;99.90
5802;DHT22;2927;49.366;8.530;2023-08-06T10:39:52;16.90;99.90
5802;DHT22;2927;49.366;8.530;2023-08-06T10:42:27;16.90;99.90
5802;DHT22;2927;49.366;8.530;2023-08-06T10:45:15;16.70;99.90
5802;DHT22;2927;49.366;8.530;2023-08-06T10:47:42;16.70;99.90
5802;DHT22;2927;49.366;8.530;2023-08-06T10:50:10;16.70;99.90
5802;DHT22;2927;49.366;8.530;2023-08-06T10:52:36;16.60;99.90
5802;DHT22;2927;49.366;8.530;2023-08-06T10:55:01;16.60;99.90
5802;DHT22;2927;49.366;8.530;2023-08-06T10:57:27;16.60;99.90
5802;DHT22;2927;49.366;8.530;2023-08-06T10:59:52;16.60;92.70
5802;DHT22;2927;49.366;8.530;2023-08-06T11:02:18;16.60;99.90
5802;DHT22;2927;49.366;8.530;2023-08-06T11:04:43;16.60;90.00
5802;DHT22;2927;49.366;8.530;2023-08-06T11:07:09;16.70;30.90
5802;DHT22;2927;49.366;8.530;2023-08-06T11:09:35;16.70;37.20
5802;DHT22;2927;49.366;8.530;2023-08-06T11:12:01;16.60;24.00
5802;DHT22;2927;49.366;8.530;2023-08-06T11:14:26;16.60;23.30
5802;DHT22;2927;49.366;8.530;2023-08-06T11:16:52;16.60;7.00
5802;DHT22;2927;49.366;8.530;2023-08-06T11:19:17;16.70;1.00
5802;DHT22;2927;49.366;8.530;2023-08-06T11:21:43;16.60;1.00
5802;DHT22;2927;49.366;8.530;2023-08-06T11:24:12;16.60;1.00
5802;DHT22;2927;49.366;8.530;2023-08-06T11:26:38;16.60;1.00
5802;DHT22;2927;49.366;8.530;2023-08-06T11:29:05;16.70;1.00
5802;DHT22;2927;49.366;8.530;2023-08-06T11:31:31;16.60;1.00
5802;DHT22;2927;49.366;8.530;2023-08-06T11:33:56;16.70;4.20
5802;DHT22;2927;49.366;8.530;2023-08-06T11:36:29;16.70;1.00
5802;DHT22;2927;49.366;8.530;2023-08-06T11:38:55;16.70;13.00
5802;DHT22;2927;49.366;8.530;2023-08-06T11:41:21;16.70;19.70
5802;DHT22;2927;49.366;8.530;2023-08-06T11:43:47;16.80;1.00
5802;DHT22;2927;49.366;8.530;2023-08-06T11:46:12;16.90;1.00
5802;DHT22;2927;49.366;8.530;2023-08-06T11:48:51;16.90;1.00
5802;DHT22;2927;49.366;8.530;2023-08-06T11:51:17;17.00;1.00
5802;DHT22;2927;49.366;8.530;2023-08-06T11:53:48;17.00;1.00
5802;DHT22;2927;49.366;8.530;2023-08-06T11:56:14;17.00;1.00
5802;DHT22;2927;49.366;8.530;2023-08-06T11:58:41;17.10;99.90
5802;DHT22;2927;49.366;8.530;2023-08-06T12:01:07;17.10;99.90
5802;DHT22;2927;49.366;8.530;2023-08-06T12:03:38;17.10;99.90
5802;DHT22;2927;49.366;8.530;2023-08-06T12:06:04;17.00;1.00
5802;DHT22;2927;49.366;8.530;2023-08-06T12:08:29;17.00;99.90
5802;DHT22;2927;49.366;8.530;2023-08-06T12:10:54;16.90;1.00
5802;DHT22;2927;49.366;8.530;2023-08-06T12:13:20;16.90;99.90
5802;DHT22;2927;49.366;8.530;2023-08-06T12:15:45;16.90;99.90
5802;DHT22;2927;49.366;8.530;2023-08-06T12:18:11;16.90;99.90
5802;DHT22;2927;49.366;8.530;2023-08-06T12:20:37;16.90;99.90
5802;DHT22;2927;49.366;8.530;2023-08-06T12:23:04;16.80;99.90
5802;DHT22;2927;49.366;8.530;2023-08-06T12:25:29;16.90;99.90
5802;DHT22;2927;49.366;8.530;2023-08-06T12:27:55;17.00;99.90
5802;DHT22;2927;49.366;8.530;2023-08-06T12:30:20;17.00;99.90
5802;DHT22;2927;49.366;8.530;2023-08-06T12:32:46;17.00;1.00
5802;DHT22;2927;49.366;8.530;2023-08-06T12:35:11;17.00;99.90
5802;DHT22;2927;49.366;8.530;2023-08-06T12:37:37;17.10;73.70
5802;DHT22;2927;49.366;8.530;2023-08-06T12:40:06;17.10;1.00
5802;DHT22;2927;49.366;8.530;2023-08-06T12:42:32;17.10;1.00
5802;DHT22;2927;49.366;8.530;2023-08-06T12:44:58;17.00;1.00
5802;DHT22;2927;49.366;8.530;2023-08-06T12:47:24;16.90;97.60
5802;DHT22;2927;49.366;8.530;2023-08-06T12:49:49;16.80;99.90
5802;DHT22;2927;49.366;8.530;2023-08-06T12:52:15;16.90;99.90
5802;DHT22;2927;49.366;8.530;2023-08-06T12:54:41;17.00;56.40
5802;DHT22;2927;49.366;8.530;2023-08-06T12:57:07;17.10;20.50
5802;DHT22;2927;49.366;8.530;2023-08-06T12:59:33;17.20;1.00
5802;DHT22;2927;49.366;8.530;2023-08-06T13:01:59;17.20;1.00
5802;DHT22;2927;49.366;8.530;2023-08-06T13:04:24;17.20;1.00
5802;DHT22;2927;49.366;8.530;2023-08-06T13:06:50;17.20;1.00
5802;DHT22;2927;49.366;8.530;2023-08-06T13:09:16;17.20;1.00
5802;DHT22;2927;49.366;8.530;2023-08-06T13:11:42;17.20;1.00
5802;DHT22;2927;49.366;8.530;2023-08-06T13:14:12;17.20;1.00
5802;DHT22;2927;49.366;8.530;2023-08-06T13:16:39;17.20;1.00
5802;DHT22;2927;49.366;8.530;2023-08-06T13:19:06;17.30;1.00
5802;DHT22;2927;49.366;8.530;2023-08-06T13:24:07;17.20;1.00
5802;DHT22;2927;49.366;8.530;2023-08-06T13:26:33;17.10;1.00
5802;DHT22;2927;49.366;8.530;2023-08-06T13:29:00;17.20;1.00
5802;DHT22;2927;49.366;8.530;2023-08-06T13:31:26;17.20;1.00
5802;DHT22;2927;49.366;8.530;2023-08-06T13:33:56;17.20;1.00
5802;DHT22;2927;49.366;8.530;2023-08-06T13:36:27;17.10;49.80
5802;DHT22;2927;49.366;8.530;2023-08-06T13:38:53;17.20;99.90
5802;DHT22;2927;49.366;8.530;2023-08-06T13:41:19;17.20;99.90
5802;DHT22;2927;49.366;8.530;2023-08-06T13:43:44;17.20;1.00
5802;DHT22;2927;49.366;8.530;2023-08-06T13:46:11;17.30;1.00
5802;DHT22;2927;49.366;8.530;2023-08-06T13:48:41;17.40;1.00
5802;DHT22;2927;49.366;8.530;2023-08-06T13:51:07;17.40;1.00
5802;DHT22;2927;49.366;8.530;2023-08-06T13:53:32;17.50;1.00
5802;DHT22;2927;49.366;8.530;2023-08-06T13:55:58;17.40;1.00
5802;DHT22;2927;49.366;8.530;2023-08-06T13:58:24;17.50;1.00
5802;DHT22;2927;49.366;8.530;2023-08-06T14:00:51;17.50;1.00
5802;DHT22;2927;49.366;8.530;2023-08-06T14:03:18;17.40;1.00
5802;DHT22;2927;49.366;8.530;2023-08-06T14:05:44;17.40;1.00
5802;DHT22;2927;49.366;8.530;2023-08-06T14:08:09;17.40;1.00
5802;DHT22;2927;49.366;8.530;2023-08-06T14:10:35;17.40;1.00
5802;DHT22;2927;49.366;8.530;2023-08-06T14:13:00;17.40;1.00
5802;DHT22;2927;49.366;8.530;2023-08-06T14:15:26;17.40;1.00
5802;DHT22;2927;49.366;8.530;2023-08-06T14:17:51;17.20;1.00
5802;DHT22;2927;49.366;8.530;2023-08-06T14:20:17;17.20;16.00
5802;DHT22;2927;49.366;8.530;2023-08-06T14:22:43;17.10;1.00
5802;DHT22;2927;49.366;8.530;2023-08-06T14:25:08;17.00;99.90
5802;DHT22;2927;49.366;8.530;2023-08-06T14:27:34;16.90;99.90
5802;DHT22;2927;49.366;8.530;2023-08-06T14:30:00;16.90;99.90
5802;DHT22;2927;49.366;8.530;2023-08-06T14:32:26;16.80;99.90
5802;DHT22;2927;49.366;8.530;2023-08-06T14:34:51;16.90;99.90
5802;DHT22;2927;49.366;8.530;2023-08-06T14:37:17;16.90;99.90
5802;DHT22;2927;49.366;8.530;2023-08-06T14:39:43;17.00;99.90
5802;DHT22;2927;49.366;8.530;2023-08-06T14:42:08;17.00;99.90
5802;DHT22;2927;49.366;8.530;2023-08-06T14:44:34;17.00;99.90
5802;DHT22;2927;49.366;8.530;2023-08-06T14:46:59;17.10;99.90
5802;DHT22;2927;49.366;8.530;2023-08-06T14:49:25;17.10;99.90
5802;DHT22;2927;49.366;8.530;2023-08-06T14:51:50;17.10;99.90
5802;DHT22;2927;49.366;8.530;2023-08-06T14:54:16;17.10;99.90
5802;DHT22;2927;49.366;8.530;2023-08-06T14:56:41;17.10;99.90
5802;DHT22;2927;49.366;8.530;2023-08-06T14:59:07;17.00;99.90
5802;DHT22;2927;49.366;8.530;2023-08-06T15:01:32;17.00;99.90
5802;DHT22;2927;49.366;8.530;2023-08-06T15:03:58;16.90;99.90
5802;DHT22;2927;49.366;8.530;2023-08-06T15:06:24;16.70;99.90
5802;DHT22;2927;49.366;8.530;2023-08-06T15:08:49;16.30;99.90
5802;DHT22;2927;49.366;8.530;2023-08-06T15:11:15;16.30;99.90
5802;DHT22;2927;49.366;8.530;2023-08-06T15:13:41;16.20;99.90
5802;DHT22;2927;49.366;8.530;2023-08-06T15:16:06;16.00;99.90
5802;DHT22;2927;49.366;8.530;2023-08-06T15:18:32;15.90;99.90
5802;DHT22;2927;49.366;8.530;2023-08-06T15:20:57;15.90;99.90
5802;DHT22;2927;49.366;8.530;2023-08-06T15:23:24;15.90;99.90
5802;DHT22;2927;49.366;8.530;2023-08-06T15:25:50;16.00;99.90
5802;DHT22;2927;49.366;8.530;2023-08-06T15:28:15;16.00;99.90
5802;DHT22;2927;49.366;8.530;2023-08-06T15:30:48;16.10;99.90
5802;DHT22;2927;49.366;8.530;2023-08-06T15:33:14;16.20;99.90
5802;DHT22;2927;49.366;8.530;2023-08-06T15:35:40;16.30;99.90
5802;DHT22;2927;49.366;8.530;2023-08-06T15:38:05;16.30;99.90
5802;DHT22;2927;49.366;8.530;2023-08-06T15:40:31;16.20;99.90
5802;DHT22;2927;49.366;8.530;2023-08-06T15:42:56;16.30;99.90
5802;DHT22;2927;49.366;8.530;2023-08-06T15:45:22;16.20;99.90
5802;DHT22;2927;49.366;8.530;2023-08-06T15:47:47;16.20;99.90
5802;DHT22;2927;49.366;8.530;2023-08-06T15:50:13;16.10;99.90
5802;DHT22;2927;49.366;8.530;2023-08-06T15:52:39;16.10;99.90
5802;DHT22;2927;49.366;8.530;2023-08-06T15:55:05;15.90;99.90
5802;DHT22;2927;49.366;8.530;2023-08-06T15:57:34;16.00;99.90
5802;DHT22;2927;49.366;8.530;2023-08-06T16:00:01;15.90;99.90
5802;DHT22;2927;49.366;8.530;2023-08-06T16:02:27;15.90;99.90
5802;DHT22;2927;49.366;8.530;2023-08-06T16:04:53;15.90;99.90
5802;DHT22;2927;49.366;8.530;2023-08-06T16:07:20;15.90;99.90
5802;DHT22;2927;49.366;8.530;2023-08-06T16:09:45;15.90;99.90
5802;DHT22;2927;49.366;8.530;2023-08-06T16:12:11;15.90;99.90
5802;DHT22;2927;49.366;8.530;2023-08-06T16:14:37;15.80;99.90
5802;DHT22;2927;49.366;8.530;2023-08-06T16:17:03;15.80;99.90